sensor_id;sensor_type;location;lat;lon;timestamp;P1;durP1;ratioP1;P2;durP2;ratioP2
75289;SDS011;63883;48.996;20.804;2022-11-21T00:01:52;57.55;;;22.92;;
75289;SDS011;63883;48.996;20.804;2022-11-21T00:04:18;59.58;;;24.02;;
75289;SDS011;63883;48.996;20.804;2022-11-21T00:10:24;80.43;;;27.45;;
75289;SDS011;63883;48.996;20.804;2022-11-21T00:12:54;72.35;;;23.55;;
75289;SDS011;63883;48.996;20.804;2022-11-21T00:15:20;78.78;;;24.60;;
75289;SDS011;63883;48.996;20.804;2022-11-21T00:17:47;82.32;;;27.38;;
75289;SDS011;63883;48.996;20.804;2022-11-21T00:20:13;94.88;;;29.13;;
75289;SDS011;63883;48.996;20.804;2022-11-21T00:22:39;97.75;;;29.30;;
75289;SDS011;63883;48.996;20.804;2022-11-21T00:28:45;72.57;;;22.30;;
75289;SDS011;63883;48.996;20.804;2022-11-21T00:31:21;74.78;;;22.77;;
75289;SDS011;63883;48.996;20.804;2022-11-21T00:33:47;94.68;;;22.63;;
75289;SDS011;63883;48.996;20.804;2022-11-21T00:39:54;85.60;;;22.75;;
75289;SDS011;63883;48.996;20.804;2022-11-21T00:42:19;121.00;;;24.92;;
75289;SDS011;63883;48.996;20.804;2022-11-21T00:44:45;128.00;;;24.80;;
75289;SDS011;63883;48.996;20.804;2022-11-21T00:47:11;107.93;;;25.30;;
75289;SDS011;63883;48.996;20.804;2022-11-21T00:49:36;71.47;;;20.90;;
75289;SDS011;63883;48.996;20.804;2022-11-21T00:52:02;63.15;;;20.15;;
75289;SDS011;63883;48.996;20.804;2022-11-21T00:54:27;55.55;;;19.30;;
75289;SDS011;63883;48.996;20.804;2022-11-21T00:56:53;52.08;;;16.77;;
75289;SDS011;63883;48.996;20.804;2022-11-21T00:59:19;44.45;;;16.95;;
75289;SDS011;63883;48.996;20.804;2022-11-21T01:01:44;58.47;;;17.65;;
75289;SDS011;63883;48.996;20.804;2022-11-21T01:04:10;55.88;;;15.68;;
75289;SDS011;63883;48.996;20.804;2022-11-21T01:10:16;49.67;;;16.92;;
75289;SDS011;63883;48.996;20.804;2022-11-21T01:12:42;48.83;;;17.23;;
75289;SDS011;63883;48.996;20.804;2022-11-21T01:18:49;42.63;;;16.20;;
75289;SDS011;63883;48.996;20.804;2022-11-21T01:23:42;48.05;;;17.88;;
75289;SDS011;63883;48.996;20.804;2022-11-21T01:32:32;40.65;;;14.02;;
75289;SDS011;63883;48.996;20.804;2022-11-21T01:34:58;47.45;;;15.10;;
75289;SDS011;63883;48.996;20.804;2022-11-21T01:37:23;46.80;;;15.98;;
75289;SDS011;63883;48.996;20.804;2022-11-21T01:39:49;44.35;;;16.05;;
75289;SDS011;63883;48.996;20.804;2022-11-21T01:42:15;40.45;;;15.35;;
75289;SDS011;63883;48.996;20.804;2022-11-21T01:44:48;49.10;;;14.30;;
75289;SDS011;63883;48.996;20.804;2022-11-21T01:47:18;41.67;;;13.95;;
75289;SDS011;63883;48.996;20.804;2022-11-21T01:49:47;47.17;;;15.05;;
75289;SDS011;63883;48.996;20.804;2022-11-21T01:52:17;36.85;;;13.27;;
75289;SDS011;63883;48.996;20.804;2022-11-21T02:02:31;48.72;;;16.02;;
75289;SDS011;63883;48.996;20.804;2022-11-21T02:04:59;44.03;;;14.25;;
75289;SDS011;63883;48.996;20.804;2022-11-21T02:07:26;45.17;;;14.73;;
75289;SDS011;63883;48.996;20.804;2022-11-21T02:09:57;42.00;;;14.60;;
75289;SDS011;63883;48.996;20.804;2022-11-21T02:12:27;38.55;;;13.52;;
75289;SDS011;63883;48.996;20.804;2022-11-21T02:14:57;34.67;;;12.77;;
75289;SDS011;63883;48.996;20.804;2022-11-21T02:17:24;33.83;;;14.07;;
75289;SDS011;63883;48.996;20.804;2022-11-21T02:19:54;44.45;;;14.35;;
75289;SDS011;63883;48.996;20.804;2022-11-21T02:25:11;39.53;;;14.30;;
75289;SDS011;63883;48.996;20.804;2022-11-21T02:27:39;38.75;;;13.65;;
75289;SDS011;63883;48.996;20.804;2022-11-21T02:30:06;39.20;;;13.50;;
75289;SDS011;63883;48.996;20.804;2022-11-21T02:32:35;40.78;;;14.07;;
75289;SDS011;63883;48.996;20.804;2022-11-21T02:37:28;42.78;;;14.00;;
75289;SDS011;63883;48.996;20.804;2022-11-21T02:39:56;41.55;;;14.57;;
75289;SDS011;63883;48.996;20.804;2022-11-21T02:42:39;40.08;;;14.40;;
75289;SDS011;63883;48.996;20.804;2022-11-21T02:45:37;35.58;;;14.00;;
75289;SDS011;63883;48.996;20.804;2022-11-21T02:48:05;37.38;;;13.73;;
75289;SDS011;63883;48.996;20.804;2022-11-21T02:50:32;48.53;;;14.82;;
75289;SDS011;63883;48.996;20.804;2022-11-21T02:52:59;43.90;;;14.18;;
75289;SDS011;63883;48.996;20.804;2022-11-21T02:55:25;39.42;;;13.82;;
75289;SDS011;63883;48.996;20.804;2022-11-21T02:57:51;35.90;;;13.52;;
75289;SDS011;63883;48.996;20.804;2022-11-21T03:00:18;44.42;;;14.68;;
75289;SDS011;63883;48.996;20.804;2022-11-21T03:07:45;28.35;;;12.35;;
75289;SDS011;63883;48.996;20.804;2022-11-21T03:10:11;45.72;;;15.00;;
75289;SDS011;63883;48.996;20.804;2022-11-21T03:12:38;41.33;;;12.57;;
75289;SDS011;63883;48.996;20.804;2022-11-21T03:15:05;47.50;;;14.95;;
75289;SDS011;63883;48.996;20.804;2022-11-21T03:17:33;59.38;;;15.40;;
75289;SDS011;63883;48.996;20.804;2022-11-21T03:19:58;43.05;;;14.68;;
75289;SDS011;63883;48.996;20.804;2022-11-21T03:22:24;47.53;;;14.57;;
75289;SDS011;63883;48.996;20.804;2022-11-21T03:24:50;50.30;;;15.05;;
75289;SDS011;63883;48.996;20.804;2022-11-21T03:27:16;36.33;;;13.10;;
75289;SDS011;63883;48.996;20.804;2022-11-21T03:29:41;46.22;;;14.80;;
75289;SDS011;63883;48.996;20.804;2022-11-21T03:32:07;44.15;;;14.70;;
75289;SDS011;63883;48.996;20.804;2022-11-21T03:34:33;40.15;;;14.30;;
75289;SDS011;63883;48.996;20.804;2022-11-21T03:36:59;46.28;;;14.55;;
75289;SDS011;63883;48.996;20.804;2022-11-21T03:39:24;38.63;;;13.88;;
75289;SDS011;63883;48.996;20.804;2022-11-21T03:41:50;35.35;;;13.70;;
75289;SDS011;63883;48.996;20.804;2022-11-21T03:44:16;44.25;;;14.93;;
75289;SDS011;63883;48.996;20.804;2022-11-21T03:46:43;48.90;;;15.68;;
75289;SDS011;63883;48.996;20.804;2022-11-21T03:49:09;45.90;;;14.15;;
75289;SDS011;63883;48.996;20.804;2022-11-21T03:51:36;48.63;;;13.95;;
75289;SDS011;63883;48.996;20.804;2022-11-21T03:54:02;55.80;;;14.25;;
75289;SDS011;63883;48.996;20.804;2022-11-21T03:56:29;51.25;;;15.05;;
75289;SDS011;63883;48.996;20.804;2022-11-21T03:58:55;49.38;;;14.40;;
75289;SDS011;63883;48.996;20.804;2022-11-21T04:01:21;50.67;;;14.40;;
75289;SDS011;63883;48.996;20.804;2022-11-21T04:03:47;43.70;;;14.30;;
75289;SDS011;63883;48.996;20.804;2022-11-21T04:06:14;48.72;;;14.93;;
75289;SDS011;63883;48.996;20.804;2022-11-21T04:08:41;53.80;;;17.67;;
75289;SDS011;63883;48.996;20.804;2022-11-21T04:11:07;39.80;;;13.85;;
75289;SDS011;63883;48.996;20.804;2022-11-21T04:13:33;35.10;;;14.13;;
75289;SDS011;63883;48.996;20.804;2022-11-21T04:15:58;37.30;;;13.55;;
75289;SDS011;63883;48.996;20.804;2022-11-21T04:18:24;35.75;;;13.45;;
75289;SDS011;63883;48.996;20.804;2022-11-21T04:21:00;29.30;;;13.05;;
75289;SDS011;63883;48.996;20.804;2022-11-21T04:23:27;28.13;;;11.30;;
75289;SDS011;63883;48.996;20.804;2022-11-21T04:25:53;29.20;;;11.38;;
75289;SDS011;63883;48.996;20.804;2022-11-21T04:28:19;24.63;;;10.15;;
75289;SDS011;63883;48.996;20.804;2022-11-21T04:30:45;25.23;;;11.63;;
75289;SDS011;63883;48.996;20.804;2022-11-21T04:33:11;25.55;;;10.77;;
75289;SDS011;63883;48.996;20.804;2022-11-21T04:35:39;24.63;;;10.27;;
75289;SDS011;63883;48.996;20.804;2022-11-21T04:38:05;27.27;;;11.18;;
75289;SDS011;63883;48.996;20.804;2022-11-21T04:40:31;29.33;;;11.23;;
75289;SDS011;63883;48.996;20.804;2022-11-21T04:42:56;28.80;;;11.23;;
75289;SDS011;63883;48.996;20.804;2022-11-21T04:45:22;29.17;;;10.55;;
75289;SDS011;63883;48.996;20.804;2022-11-21T04:47:48;27.90;;;11.23;;
75289;SDS011;63883;48.996;20.804;2022-11-21T04:50:15;27.17;;;11.38;;
75289;SDS011;63883;48.996;20.804;2022-11-21T04:52:47;28.88;;;11.55;;
75289;SDS011;63883;48.996;20.804;2022-11-21T04:55:14;33.92;;;11.10;;
75289;SDS011;63883;48.996;20.804;2022-11-21T04:57:58;24.67;;;10.27;;
75289;SDS011;63883;48.996;20.804;2022-11-21T05:00:24;23.65;;;10.77;;
75289;SDS011;63883;48.996;20.804;2022-11-21T05:02:50;23.77;;;11.18;;
75289;SDS011;63883;48.996;20.804;2022-11-21T05:05:16;23.17;;;10.57;;
75289;SDS011;63883;48.996;20.804;2022-11-21T05:07:42;28.27;;;11.77;;
75289;SDS011;63883;48.996;20.804;2022-11-21T05:10:08;48.88;;;16.52;;
75289;SDS011;63883;48.996;20.804;2022-11-21T05:12:33;33.05;;;12.85;;
75289;SDS011;63883;48.996;20.804;2022-11-21T05:15:18;28.70;;;11.85;;
75289;SDS011;63883;48.996;20.804;2022-11-21T05:17:44;28.25;;;10.80;;
75289;SDS011;63883;48.996;20.804;2022-11-21T05:20:10;31.20;;;11.75;;
75289;SDS011;63883;48.996;20.804;2022-11-21T05:22:36;30.58;;;10.80;;
75289;SDS011;63883;48.996;20.804;2022-11-21T05:25:03;23.98;;;11.60;;
75289;SDS011;63883;48.996;20.804;2022-11-21T05:27:29;21.88;;;9.60;;
75289;SDS011;63883;48.996;20.804;2022-11-21T05:29:55;21.35;;;10.05;;
75289;SDS011;63883;48.996;20.804;2022-11-21T05:32:21;22.85;;;9.20;;
75289;SDS011;63883;48.996;20.804;2022-11-21T05:34:47;23.80;;;10.45;;
75289;SDS011;63883;48.996;20.804;2022-11-21T05:37:12;33.17;;;10.75;;
75289;SDS011;63883;48.996;20.804;2022-11-21T05:39:38;24.33;;;10.38;;
75289;SDS011;63883;48.996;20.804;2022-11-21T05:42:04;24.13;;;9.43;;
75289;SDS011;63883;48.996;20.804;2022-11-21T05:44:30;20.92;;;10.27;;
75289;SDS011;63883;48.996;20.804;2022-11-21T05:46:55;26.13;;;9.35;;
75289;SDS011;63883;48.996;20.804;2022-11-21T05:49:21;24.58;;;10.52;;
75289;SDS011;63883;48.996;20.804;2022-11-21T05:52:05;23.73;;;10.05;;
75289;SDS011;63883;48.996;20.804;2022-11-21T05:54:30;26.13;;;8.93;;
75289;SDS011;63883;48.996;20.804;2022-11-21T05:56:56;22.55;;;8.65;;
75289;SDS011;63883;48.996;20.804;2022-11-21T05:59:22;19.80;;;8.88;;
75289;SDS011;63883;48.996;20.804;2022-11-21T06:01:47;29.63;;;11.35;;
75289;SDS011;63883;48.996;20.804;2022-11-21T06:04:31;26.35;;;10.23;;
75289;SDS011;63883;48.996;20.804;2022-11-21T06:06:57;23.85;;;9.02;;
75289;SDS011;63883;48.996;20.804;2022-11-21T06:09:24;21.98;;;9.57;;
75289;SDS011;63883;48.996;20.804;2022-11-21T06:11:49;19.77;;;8.40;;
75289;SDS011;63883;48.996;20.804;2022-11-21T06:14:15;28.13;;;9.00;;
75289;SDS011;63883;48.996;20.804;2022-11-21T06:16:41;29.73;;;10.63;;
75289;SDS011;63883;48.996;20.804;2022-11-21T06:19:06;27.05;;;10.63;;
75289;SDS011;63883;48.996;20.804;2022-11-21T06:21:32;27.63;;;9.38;;
75289;SDS011;63883;48.996;20.804;2022-11-21T06:24:00;24.83;;;9.77;;
75289;SDS011;63883;48.996;20.804;2022-11-21T06:26:26;25.60;;;9.18;;
75289;SDS011;63883;48.996;20.804;2022-11-21T06:31:30;29.38;;;9.43;;
75289;SDS011;63883;48.996;20.804;2022-11-21T06:33:57;48.50;;;18.95;;
75289;SDS011;63883;48.996;20.804;2022-11-21T06:36:23;26.65;;;11.27;;
75289;SDS011;63883;48.996;20.804;2022-11-21T06:38:51;27.98;;;10.45;;
75289;SDS011;63883;48.996;20.804;2022-11-21T06:41:19;27.73;;;10.35;;
75289;SDS011;63883;48.996;20.804;2022-11-21T06:43:46;28.73;;;10.18;;
75289;SDS011;63883;48.996;20.804;2022-11-21T06:46:13;35.28;;;10.18;;
75289;SDS011;63883;48.996;20.804;2022-11-21T06:48:39;30.67;;;12.40;;
75289;SDS011;63883;48.996;20.804;2022-11-21T06:51:07;27.50;;;11.07;;
75289;SDS011;63883;48.996;20.804;2022-11-21T06:53:37;25.75;;;9.60;;
75289;SDS011;63883;48.996;20.804;2022-11-21T06:56:03;25.33;;;9.60;;
75289;SDS011;63883;48.996;20.804;2022-11-21T06:58:30;21.02;;;9.07;;
75289;SDS011;63883;48.996;20.804;2022-11-21T07:00:56;23.15;;;8.93;;
75289;SDS011;63883;48.996;20.804;2022-11-21T07:03:22;25.38;;;8.63;;
75289;SDS011;63883;48.996;20.804;2022-11-21T07:05:48;25.83;;;9.50;;
75289;SDS011;63883;48.996;20.804;2022-11-21T07:08:15;27.58;;;9.80;;
75289;SDS011;63883;48.996;20.804;2022-11-21T07:10:40;23.70;;;9.23;;
75289;SDS011;63883;48.996;20.804;2022-11-21T07:13:06;22.08;;;9.55;;
75289;SDS011;63883;48.996;20.804;2022-11-21T07:15:59;25.38;;;9.75;;
75289;SDS011;63883;48.996;20.804;2022-11-21T07:18:47;22.92;;;9.02;;
75289;SDS011;63883;48.996;20.804;2022-11-21T07:21:13;23.02;;;9.45;;
75289;SDS011;63883;48.996;20.804;2022-11-21T07:23:39;24.33;;;9.95;;
75289;SDS011;63883;48.996;20.804;2022-11-21T07:26:05;22.08;;;9.15;;
75289;SDS011;63883;48.996;20.804;2022-11-21T07:28:32;20.73;;;8.80;;
75289;SDS011;63883;48.996;20.804;2022-11-21T07:30:59;21.15;;;9.40;;
75289;SDS011;63883;48.996;20.804;2022-11-21T07:33:26;23.48;;;9.52;;
75289;SDS011;63883;48.996;20.804;2022-11-21T07:35:54;21.65;;;8.48;;
75289;SDS011;63883;48.996;20.804;2022-11-21T07:38:20;21.95;;;10.00;;
75289;SDS011;63883;48.996;20.804;2022-11-21T07:40:46;23.63;;;9.93;;
75289;SDS011;63883;48.996;20.804;2022-11-21T07:43:11;19.05;;;8.38;;
75289;SDS011;63883;48.996;20.804;2022-11-21T07:45:37;42.15;;;16.42;;
75289;SDS011;63883;48.996;20.804;2022-11-21T07:48:04;25.77;;;10.40;;
75289;SDS011;63883;48.996;20.804;2022-11-21T07:50:31;25.75;;;10.05;;
75289;SDS011;63883;48.996;20.804;2022-11-21T07:52:57;26.52;;;11.95;;
75289;SDS011;63883;48.996;20.804;2022-11-21T07:55:24;26.05;;;10.55;;
75289;SDS011;63883;48.996;20.804;2022-11-21T07:57:59;25.63;;;10.15;;
75289;SDS011;63883;48.996;20.804;2022-11-21T08:00:33;21.00;;;8.77;;
75289;SDS011;63883;48.996;20.804;2022-11-21T08:03:00;23.02;;;9.10;;
75289;SDS011;63883;48.996;20.804;2022-11-21T08:05:28;21.30;;;8.30;;
75289;SDS011;63883;48.996;20.804;2022-11-21T08:07:53;23.00;;;9.82;;
75289;SDS011;63883;48.996;20.804;2022-11-21T08:10:19;21.25;;;10.27;;
75289;SDS011;63883;48.996;20.804;2022-11-21T08:12:45;23.35;;;10.23;;
75289;SDS011;63883;48.996;20.804;2022-11-21T08:15:11;24.98;;;10.40;;
75289;SDS011;63883;48.996;20.804;2022-11-21T08:17:37;21.33;;;9.45;;
75289;SDS011;63883;48.996;20.804;2022-11-21T08:20:04;19.05;;;8.55;;
75289;SDS011;63883;48.996;20.804;2022-11-21T08:22:31;22.77;;;9.50;;
75289;SDS011;63883;48.996;20.804;2022-11-21T08:24:57;26.25;;;9.75;;
75289;SDS011;63883;48.996;20.804;2022-11-21T08:27:22;20.23;;;9.05;;
75289;SDS011;63883;48.996;20.804;2022-11-21T08:29:49;22.20;;;10.57;;
75289;SDS011;63883;48.996;20.804;2022-11-21T08:32:14;19.15;;;8.50;;
75289;SDS011;63883;48.996;20.804;2022-11-21T08:34:40;20.50;;;8.63;;
75289;SDS011;63883;48.996;20.804;2022-11-21T08:37:06;19.33;;;9.27;;
75289;SDS011;63883;48.996;20.804;2022-11-21T08:39:32;18.65;;;9.02;;
75289;SDS011;63883;48.996;20.804;2022-11-21T08:41:58;20.20;;;9.13;;
75289;SDS011;63883;48.996;20.804;2022-11-21T08:44:30;16.45;;;7.25;;
75289;SDS011;63883;48.996;20.804;2022-11-21T08:46:57;15.52;;;7.85;;
75289;SDS011;63883;48.996;20.804;2022-11-21T08:49:23;23.10;;;8.38;;
75289;SDS011;63883;48.996;20.804;2022-11-21T08:51:49;17.40;;;9.10;;
75289;SDS011;63883;48.996;20.804;2022-11-21T08:54:19;15.27;;;7.40;;
75289;SDS011;63883;48.996;20.804;2022-11-21T08:56:47;22.33;;;10.43;;
75289;SDS011;63883;48.996;20.804;2022-11-21T08:59:14;22.10;;;9.68;;
75289;SDS011;63883;48.996;20.804;2022-11-21T09:01:40;21.58;;;9.60;;
75289;SDS011;63883;48.996;20.804;2022-11-21T09:04:06;24.08;;;10.75;;
75289;SDS011;63883;48.996;20.804;2022-11-21T09:06:32;18.58;;;9.32;;
75289;SDS011;63883;48.996;20.804;2022-11-21T09:08:58;19.90;;;8.63;;
75289;SDS011;63883;48.996;20.804;2022-11-21T09:11:24;19.65;;;9.77;;
75289;SDS011;63883;48.996;20.804;2022-11-21T09:13:50;23.83;;;10.77;;
75289;SDS011;63883;48.996;20.804;2022-11-21T09:16:35;22.15;;;10.18;;
75289;SDS011;63883;48.996;20.804;2022-11-21T09:19:20;21.08;;;9.85;;
75289;SDS011;63883;48.996;20.804;2022-11-21T09:21:50;22.13;;;10.32;;
75289;SDS011;63883;48.996;20.804;2022-11-21T09:24:16;24.27;;;11.02;;
75289;SDS011;63883;48.996;20.804;2022-11-21T09:26:42;16.23;;;8.70;;
75289;SDS011;63883;48.996;20.804;2022-11-21T09:29:08;16.50;;;8.15;;
75289;SDS011;63883;48.996;20.804;2022-11-21T09:31:41;15.65;;;7.75;;
75289;SDS011;63883;48.996;20.804;2022-11-21T09:34:08;16.52;;;7.47;;
75289;SDS011;63883;48.996;20.804;2022-11-21T09:36:34;15.70;;;8.10;;
75289;SDS011;63883;48.996;20.804;2022-11-21T09:39:00;14.13;;;6.88;;
75289;SDS011;63883;48.996;20.804;2022-11-21T09:47:24;15.23;;;7.15;;
75289;SDS011;63883;48.996;20.804;2022-11-21T09:50:12;16.02;;;7.88;;
75289;SDS011;63883;48.996;20.804;2022-11-21T09:52:49;18.10;;;7.72;;
75289;SDS011;63883;48.996;20.804;2022-11-21T09:57:59;16.85;;;8.00;;
75289;SDS011;63883;48.996;20.804;2022-11-21T10:00:29;18.20;;;7.80;;
75289;SDS011;63883;48.996;20.804;2022-11-21T10:02:55;15.38;;;7.55;;
75289;SDS011;63883;48.996;20.804;2022-11-21T10:05:28;17.08;;;8.00;;
75289;SDS011;63883;48.996;20.804;2022-11-21T10:08:06;17.30;;;7.93;;
75289;SDS011;63883;48.996;20.804;2022-11-21T10:10:54;17.83;;;8.43;;
75289;SDS011;63883;48.996;20.804;2022-11-21T10:18:57;14.50;;;7.00;;
75289;SDS011;63883;48.996;20.804;2022-11-21T10:21:39;15.82;;;8.13;;
75289;SDS011;63883;48.996;20.804;2022-11-21T10:26:57;14.55;;;7.20;;
75289;SDS011;63883;48.996;20.804;2022-11-21T10:29:29;15.50;;;7.30;;
75289;SDS011;63883;48.996;20.804;2022-11-21T10:32:01;15.25;;;7.07;;
75289;SDS011;63883;48.996;20.804;2022-11-21T10:34:36;12.63;;;6.28;;
75289;SDS011;63883;48.996;20.804;2022-11-21T10:37:17;15.20;;;7.03;;
75289;SDS011;63883;48.996;20.804;2022-11-21T10:40:19;18.88;;;8.30;;
75289;SDS011;63883;48.996;20.804;2022-11-21T10:43:13;14.25;;;7.65;;
75289;SDS011;63883;48.996;20.804;2022-11-21T10:46:07;17.13;;;8.02;;
75289;SDS011;63883;48.996;20.804;2022-11-21T10:48:33;16.10;;;7.72;;
75289;SDS011;63883;48.996;20.804;2022-11-21T10:53:37;16.42;;;8.00;;
75289;SDS011;63883;48.996;20.804;2022-11-21T10:56:22;16.20;;;8.30;;
75289;SDS011;63883;48.996;20.804;2022-11-21T10:58:51;17.27;;;8.90;;
75289;SDS011;63883;48.996;20.804;2022-11-21T11:01:23;19.10;;;9.63;;
75289;SDS011;63883;48.996;20.804;2022-11-21T11:04:34;19.40;;;9.45;;
75289;SDS011;63883;48.996;20.804;2022-11-21T11:06:35;23.17;;;11.00;;
75289;SDS011;63883;48.996;20.804;2022-11-21T11:09:03;26.10;;;10.43;;
75289;SDS011;63883;48.996;20.804;2022-11-21T11:11:29;20.23;;;8.80;;
75289;SDS011;63883;48.996;20.804;2022-11-21T11:16:30;21.77;;;9.30;;
75289;SDS011;63883;48.996;20.804;2022-11-21T11:19:14;18.55;;;8.77;;
75289;SDS011;63883;48.996;20.804;2022-11-21T11:21:44;17.58;;;8.73;;
75289;SDS011;63883;48.996;20.804;2022-11-21T11:32:22;18.83;;;9.27;;
75289;SDS011;63883;48.996;20.804;2022-11-21T11:34:40;24.23;;;10.77;;
75289;SDS011;63883;48.996;20.804;2022-11-21T11:37:37;25.27;;;9.65;;
75289;SDS011;63883;48.996;20.804;2022-11-21T11:42:45;18.92;;;9.18;;
75289;SDS011;63883;48.996;20.804;2022-11-21T11:48:39;18.90;;;8.50;;
75289;SDS011;63883;48.996;20.804;2022-11-21T11:51:17;17.35;;;8.27;;
75289;SDS011;63883;48.996;20.804;2022-11-21T11:53:49;22.35;;;8.68;;
75289;SDS011;63883;48.996;20.804;2022-11-21T11:56:24;22.17;;;9.43;;
75289;SDS011;63883;48.996;20.804;2022-11-21T11:58:54;21.20;;;9.02;;
75289;SDS011;63883;48.996;20.804;2022-11-21T12:03:57;23.33;;;9.50;;
75289;SDS011;63883;48.996;20.804;2022-11-21T12:06:29;21.65;;;9.27;;
75289;SDS011;63883;48.996;20.804;2022-11-21T12:09:15;39.55;;;19.58;;
75289;SDS011;63883;48.996;20.804;2022-11-21T12:14:39;20.80;;;9.43;;
75289;SDS011;63883;48.996;20.804;2022-11-21T12:20:33;29.73;;;11.07;;
75289;SDS011;63883;48.996;20.804;2022-11-21T12:23:04;23.92;;;10.02;;
75289;SDS011;63883;48.996;20.804;2022-11-21T12:25:35;24.10;;;10.98;;
75289;SDS011;63883;48.996;20.804;2022-11-21T12:28:07;25.90;;;11.18;;
75289;SDS011;63883;48.996;20.804;2022-11-21T12:33:42;24.80;;;10.10;;
75289;SDS011;63883;48.996;20.804;2022-11-21T12:36:39;22.38;;;9.57;;
75289;SDS011;63883;48.996;20.804;2022-11-21T12:41:53;17.92;;;7.95;;
75289;SDS011;63883;48.996;20.804;2022-11-21T12:47:49;15.75;;;7.97;;
75289;SDS011;63883;48.996;20.804;2022-11-21T13:05:09;19.75;;;9.00;;
75289;SDS011;63883;48.996;20.804;2022-11-21T13:07:38;19.63;;;9.20;;
75289;SDS011;63883;48.996;20.804;2022-11-21T13:10:04;19.30;;;9.05;;
75289;SDS011;63883;48.996;20.804;2022-11-21T13:12:47;18.80;;;9.10;;
75289;SDS011;63883;48.996;20.804;2022-11-21T13:15:28;21.33;;;9.88;;
75289;SDS011;63883;48.996;20.804;2022-11-21T13:18:19;20.73;;;9.80;;
75289;SDS011;63883;48.996;20.804;2022-11-21T13:20:57;20.10;;;10.48;;
75289;SDS011;63883;48.996;20.804;2022-11-21T13:29:10;19.63;;;9.45;;
75289;SDS011;63883;48.996;20.804;2022-11-21T13:31:37;18.27;;;8.90;;
75289;SDS011;63883;48.996;20.804;2022-11-21T13:34:33;22.17;;;10.27;;
75289;SDS011;63883;48.996;20.804;2022-11-21T13:36:56;18.98;;;9.93;;
75289;SDS011;63883;48.996;20.804;2022-11-21T13:41:57;19.20;;;9.60;;
75289;SDS011;63883;48.996;20.804;2022-11-21T13:44:47;18.08;;;9.68;;
75289;SDS011;63883;48.996;20.804;2022-11-21T14:00:42;26.77;;;11.48;;
75289;SDS011;63883;48.996;20.804;2022-11-21T14:06:40;27.63;;;12.80;;
75289;SDS011;63883;48.996;20.804;2022-11-21T14:11:39;29.20;;;12.88;;
75289;SDS011;63883;48.996;20.804;2022-11-21T14:14:24;27.75;;;12.63;;
75289;SDS011;63883;48.996;20.804;2022-11-21T14:16:57;30.13;;;13.48;;
75289;SDS011;63883;48.996;20.804;2022-11-21T14:19:44;29.10;;;13.02;;
75289;SDS011;63883;48.996;20.804;2022-11-21T14:22:23;30.65;;;13.60;;
75289;SDS011;63883;48.996;20.804;2022-11-21T14:24:51;39.47;;;16.35;;
75289;SDS011;63883;48.996;20.804;2022-11-21T14:27:26;53.42;;;20.48;;
75289;SDS011;63883;48.996;20.804;2022-11-21T14:29:55;57.25;;;21.90;;
75289;SDS011;63883;48.996;20.804;2022-11-21T14:32:27;43.17;;;17.27;;
75289;SDS011;63883;48.996;20.804;2022-11-21T14:35:39;31.63;;;13.90;;
75289;SDS011;63883;48.996;20.804;2022-11-21T14:37:45;30.55;;;14.52;;
75289;SDS011;63883;48.996;20.804;2022-11-21T14:40:11;30.05;;;12.63;;
75289;SDS011;63883;48.996;20.804;2022-11-21T14:42:43;30.35;;;13.05;;
75289;SDS011;63883;48.996;20.804;2022-11-21T14:45:19;35.15;;;16.23;;
75289;SDS011;63883;48.996;20.804;2022-11-21T14:47:47;37.13;;;15.35;;
75289;SDS011;63883;48.996;20.804;2022-11-21T14:50:23;33.75;;;13.68;;
75289;SDS011;63883;48.996;20.804;2022-11-21T14:52:54;27.65;;;11.75;;
75289;SDS011;63883;48.996;20.804;2022-11-21T14:55:27;30.58;;;12.85;;
75289;SDS011;63883;48.996;20.804;2022-11-21T14:57:58;33.58;;;12.70;;
75289;SDS011;63883;48.996;20.804;2022-11-21T15:00:27;34.08;;;13.73;;
75289;SDS011;63883;48.996;20.804;2022-11-21T15:02:55;34.17;;;13.77;;
75289;SDS011;63883;48.996;20.804;2022-11-21T15:05:27;36.90;;;13.73;;
75289;SDS011;63883;48.996;20.804;2022-11-21T15:07:54;37.47;;;14.48;;
75289;SDS011;63883;48.996;20.804;2022-11-21T15:10:22;35.25;;;14.32;;
75289;SDS011;63883;48.996;20.804;2022-11-21T15:13:02;37.63;;;14.35;;
75289;SDS011;63883;48.996;20.804;2022-11-21T15:15:39;31.67;;;13.40;;
75289;SDS011;63883;48.996;20.804;2022-11-21T15:18:15;38.85;;;16.73;;
75289;SDS011;63883;48.996;20.804;2022-11-21T15:20:57;36.95;;;15.18;;
75289;SDS011;63883;48.996;20.804;2022-11-21T15:23:29;34.05;;;13.43;;
75289;SDS011;63883;48.996;20.804;2022-11-21T15:25:55;36.35;;;15.57;;
75289;SDS011;63883;48.996;20.804;2022-11-21T15:28:22;38.97;;;16.80;;
75289;SDS011;63883;48.996;20.804;2022-11-21T15:30:47;38.83;;;16.58;;
75289;SDS011;63883;48.996;20.804;2022-11-21T15:36:25;32.25;;;13.75;;
75289;SDS011;63883;48.996;20.804;2022-11-21T15:41:31;39.83;;;13.75;;
75289;SDS011;63883;48.996;20.804;2022-11-21T15:46:27;32.85;;;13.77;;
75289;SDS011;63883;48.996;20.804;2022-11-21T15:49:00;49.50;;;19.30;;
75289;SDS011;63883;48.996;20.804;2022-11-21T15:51:32;55.03;;;20.83;;
75289;SDS011;63883;48.996;20.804;2022-11-21T15:54:00;45.80;;;16.63;;
75289;SDS011;63883;48.996;20.804;2022-11-21T15:56:26;42.95;;;17.58;;
75289;SDS011;63883;48.996;20.804;2022-11-21T15:58:52;42.38;;;17.60;;
75289;SDS011;63883;48.996;20.804;2022-11-21T16:03:49;56.50;;;21.98;;
75289;SDS011;63883;48.996;20.804;2022-11-21T16:06:20;57.83;;;21.63;;
75289;SDS011;63883;48.996;20.804;2022-11-21T16:08:46;47.92;;;18.30;;
75289;SDS011;63883;48.996;20.804;2022-11-21T16:13:50;43.30;;;15.98;;
75289;SDS011;63883;48.996;20.804;2022-11-21T16:16:18;42.58;;;16.17;;
75289;SDS011;63883;48.996;20.804;2022-11-21T16:18:45;52.47;;;16.27;;
75289;SDS011;63883;48.996;20.804;2022-11-21T16:21:11;54.80;;;19.55;;
75289;SDS011;63883;48.996;20.804;2022-11-21T16:23:37;52.00;;;18.90;;
75289;SDS011;63883;48.996;20.804;2022-11-21T16:26:03;60.60;;;21.00;;
75289;SDS011;63883;48.996;20.804;2022-11-21T16:28:31;62.53;;;19.70;;
75289;SDS011;63883;48.996;20.804;2022-11-21T16:30:57;58.97;;;18.88;;
75289;SDS011;63883;48.996;20.804;2022-11-21T16:33:24;81.28;;;18.38;;
75289;SDS011;63883;48.996;20.804;2022-11-21T16:35:50;69.13;;;17.85;;
75289;SDS011;63883;48.996;20.804;2022-11-21T16:38:23;60.45;;;16.67;;
75289;SDS011;63883;48.996;20.804;2022-11-21T16:40:59;60.90;;;17.77;;
75289;SDS011;63883;48.996;20.804;2022-11-21T16:43:27;77.53;;;18.30;;
75289;SDS011;63883;48.996;20.804;2022-11-21T16:45:53;56.55;;;17.40;;
75289;SDS011;63883;48.996;20.804;2022-11-21T16:48:20;60.33;;;17.35;;
75289;SDS011;63883;48.996;20.804;2022-11-21T16:50:47;50.30;;;15.38;;
75289;SDS011;63883;48.996;20.804;2022-11-21T16:53:14;58.60;;;16.65;;
75289;SDS011;63883;48.996;20.804;2022-11-21T16:55:40;77.72;;;17.00;;
75289;SDS011;63883;48.996;20.804;2022-11-21T16:58:07;53.65;;;14.95;;
75289;SDS011;63883;48.996;20.804;2022-11-21T17:00:33;88.00;;;16.20;;
75289;SDS011;63883;48.996;20.804;2022-11-21T17:02:59;64.65;;;20.27;;
75289;SDS011;63883;48.996;20.804;2022-11-21T17:05:25;80.35;;;19.45;;